Apache Junction, Arizona
Current Conditions -  °F | °C
As of 2:35 AM on Sunday 23 Nov 2014 (Local Time) from KIWA Reporting Station
Clear Clear  
Wind Chill: 40°   Ceiling: Unl
Heat Index: 45°   Visibility: 10mi
Dew Point: 28°   Wind: 8mph
Humidity: 53%   Direction: 100°E
Pressure: 29.96"   Gusts: NA
Location:  33.42°N, 111.54°W
Report Text: KIWA 230935Z AUTO 10007KT 10SM CLR 07/M02 A2996 RMK AO2
Loading
Personal Weather Stations






























Interactive Weather Map New forecast layout! Learn more

10-Day Weather Forecast

Advertisements
Track Severe Weather on mobile